Time;durP1;ratioP1;P1;durP2;ratioP2;P2;SDS_P1;SDS_P2;PMS_P1;PMS_P2;Temp;Humidity;BMP_temperature;BMP_pressure;BME280_temperature;BME280_humidity;BME280_pressure;Samples;Min_cycle;Max_cycle;Signal;HPM_P1;HPM_P2
2021/09/09 00:01:45;;;;;;;11.85;8.98;;;20.20;79.60;;;;;;5034933;28;20489;-63
2021/09/09 00:04:10;;;;;;;9.50;8.45;;;20.20;79.70;;;;;;5052654;28;20362;-63
2021/09/09 00:06:36;;;;;;;11.15;9.40;;;20.10;79.90;;;;;;5052536;28;20035;-63
2021/09/09 00:09:01;;;;;;;12.65;9.70;;;20.10;80.00;;;;;;5052536;28;20104;-63
2021/09/09 00:11:27;;;;;;;10.82;9.05;;;20.00;80.00;;;;;;5052619;28;20028;-63
2021/09/09 00:13:52;;;;;;;11.15;9.13;;;20.00;80.20;;;;;;5052877;28;20469;-63
2021/09/09 00:16:18;;;;;;;12.25;9.32;;;20.00;80.30;;;;;;5035741;28;20487;-63
2021/09/09 00:18:44;;;;;;;11.65;9.50;;;20.00;80.40;;;;;;5038820;28;20032;-63
2021/09/09 00:21:10;;;;;;;11.38;9.27;;;19.90;80.40;;;;;;5056544;28;20037;-63
2021/09/09 00:23:36;;;;;;;10.15;8.98;;;19.90;80.50;;;;;;5056524;28;20544;-63
2021/09/09 00:26:03;;;;;;;12.10;8.95;;;19.90;80.60;;;;;;5056562;28;20044;-63
2021/09/09 00:28:29;;;;;;;12.00;9.30;;;19.80;80.60;;;;;;5056512;28;20384;-63
2021/09/09 00:30:55;;;;;;;12.77;9.35;;;19.80;80.70;;;;;;5056475;28;20037;-63
2021/09/09 00:33:20;;;;;;;11.85;9.15;;;19.80;80.80;;;;;;5056443;28;20143;-63
2021/09/09 00:35:46;;;;;;;13.02;9.98;;;19.70;80.80;;;;;;5056334;28;20566;-63
2021/09/09 00:38:12;;;;;;;11.10;9.32;;;19.70;81.00;;;;;;5038422;28;20103;-63
2021/09/09 00:40:38;;;;;;;11.00;9.65;;;19.60;81.10;;;;;;5038397;28;20465;-63
2021/09/09 00:43:03;;;;;;;9.95;8.70;;;19.70;81.30;;;;;;5056198;28;20057;-63
2021/09/09 00:45:29;;;;;;;11.43;9.13;;;19.60;81.40;;;;;;5056348;28;20036;-63
2021/09/09 00:47:54;;;;;;;11.05;9.48;;;19.60;81.60;;;;;;5056130;28;20028;-63
2021/09/09 00:50:20;;;;;;;11.05;9.82;;;19.50;81.60;;;;;;5056018;28;20025;-63
2021/09/09 00:52:48;;;;;;;13.75;9.85;;;19.50;81.80;;;;;;5054688;28;20021;-63
2021/09/09 00:55:14;;;;;;;12.43;9.77;;;19.50;81.90;;;;;;5056078;28;20070;-63
2021/09/09 00:57:40;;;;;;;13.85;9.48;;;19.40;82.00;;;;;;5056023;28;20485;-63
2021/09/09 01:00:07;;;;;;;11.40;10.05;;;19.40;82.10;;;;;;5038138;28;20036;-63
2021/09/09 01:02:32;;;;;;;11.75;9.57;;;19.40;82.20;;;;;;5055878;28;20021;-63
2021/09/09 01:04:58;;;;;;;11.52;9.50;;;19.30;82.30;;;;;;5055781;28;20392;-63
2021/09/09 01:07:25;;;;;;;11.88;9.80;;;19.30;82.50;;;;;;5055604;28;20128;-63
2021/09/09 01:09:51;;;;;;;10.43;9.27;;;19.30;82.60;;;;;;5055967;28;20085;-63
2021/09/09 01:12:18;;;;;;;10.95;9.70;;;19.20;82.60;;;;;;5055518;28;20540;-63
2021/09/09 01:14:43;;;;;;;11.60;9.57;;;19.20;82.70;;;;;;5037791;28;20028;-63
2021/09/09 01:17:09;;;;;;;12.25;9.77;;;19.10;82.70;;;;;;5055662;28;20055;-63
2021/09/09 01:19:34;;;;;;;11.25;9.68;;;19.10;82.90;;;;;;5055509;28;20036;-63
2021/09/09 01:22:00;;;;;;;12.95;10.75;;;19.00;83.00;;;;;;5055501;28;20017;-63
2021/09/09 01:24:26;;;;;;;11.75;10.40;;;19.00;83.20;;;;;;5055315;28;20100;-63
2021/09/09 01:27:01;;;;;;;12.38;10.20;;;19.00;83.30;;;;;;5055477;28;20052;-63
2021/09/09 01:29:32;;;;;;;12.73;9.85;;;18.90;83.30;;;;;;5054307;28;20481;-63
2021/09/09 01:31:58;;;;;;;12.13;10.05;;;18.80;83.50;;;;;;5055163;28;20082;-63
2021/09/09 01:34:24;;;;;;;11.50;9.90;;;18.80;83.70;;;;;;5037516;28;20017;-63
2021/09/09 01:36:51;;;;;;;12.70;9.90;;;18.80;83.90;;;;;;5054115;28;20542;-63
2021/09/09 01:39:16;;;;;;;12.32;9.95;;;18.70;83.90;;;;;;5055058;28;20024;-63
2021/09/09 01:41:42;;;;;;;11.63;9.63;;;18.70;84.10;;;;;;5053730;28;20488;-63
2021/09/09 01:44:08;;;;;;;12.70;9.85;;;18.70;84.20;;;;;;5055195;28;20492;-63
2021/09/09 01:46:34;;;;;;;12.50;9.55;;;18.60;84.30;;;;;;5037179;28;20361;-63
2021/09/09 01:49:00;;;;;;;13.88;10.25;;;18.60;84.50;;;;;;5055316;28;20028;-63
2021/09/09 01:51:26;;;;;;;12.10;10.07;;;18.60;84.60;;;;;;5054999;28;20059;-63
2021/09/09 01:53:54;;;;;;;13.63;10.05;;;18.60;84.80;;;;;;5055014;28;20025;-62
2021/09/09 01:56:19;;;;;;;11.20;9.73;;;18.60;84.80;;;;;;5054844;28;20029;-63
2021/09/09 01:58:45;;;;;;;12.18;10.35;;;18.50;84.90;;;;;;5055019;28;20029;-63
2021/09/09 02:01:10;;;;;;;12.32;10.57;;;18.50;85.10;;;;;;5054771;28;20489;-62
2021/09/09 02:03:36;;;;;;;12.68;11.00;;;18.50;85.20;;;;;;5054721;28;20508;-62
2021/09/09 02:06:02;;;;;;;15.48;10.75;;;18.40;85.30;;;;;;5054691;28;20029;-63
2021/09/09 02:08:28;;;;;;;13.00;10.70;;;18.40;85.50;;;;;;5036823;28;20025;-63
2021/09/09 02:10:53;;;;;;;12.02;9.95;;;18.40;85.60;;;;;;5054586;28;20028;-62
2021/09/09 02:13:19;;;;;;;13.15;10.73;;;18.40;85.70;;;;;;5054645;28;20435;-63
2021/09/09 02:15:44;;;;;;;12.30;11.00;;;18.30;85.80;;;;;;5054381;28;20021;-63
2021/09/09 02:18:10;;;;;;;14.27;11.38;;;18.30;85.90;;;;;;5054542;28;20067;-63
2021/09/09 02:20:36;;;;;;;13.45;11.18;;;18.30;85.90;;;;;;5036704;28;20473;-62
2021/09/09 02:23:02;;;;;;;15.15;11.38;;;18.20;86.00;;;;;;5054308;28;20389;-63
2021/09/09 02:25:27;;;;;;;13.05;10.30;;;18.20;86.10;;;;;;5054278;28;20033;-62
2021/09/09 02:27:53;;;;;;;12.23;10.43;;;18.20;86.20;;;;;;5054230;28;20525;-62
2021/09/09 02:30:18;;;;;;;13.60;10.93;;;18.20;86.20;;;;;;5054277;28;20365;-63
2021/09/09 02:32:44;;;;;;;14.75;10.90;;;18.10;86.30;;;;;;5054166;28;20405;-63
2021/09/09 02:35:10;;;;;;;14.25;11.07;;;18.10;86.40;;;;;;5036299;28;20021;-63
2021/09/09 02:37:35;;;;;;;15.05;11.70;;;18.10;86.40;;;;;;5054177;28;20435;-63
2021/09/09 02:40:01;;;;;;;10.25;8.65;;;18.00;86.40;;;;;;5053666;28;20163;-63
2021/09/09 02:42:27;;;;;;;9.55;8.23;;;18.00;86.60;;;;;;5053656;28;20053;-62
2021/09/09 02:44:53;;;;;;;9.63;8.35;;;17.90;86.70;;;;;;5054013;28;20036;-62
2021/09/09 02:47:18;;;;;;;9.98;8.60;;;17.80;86.90;;;;;;5053887;28;20032;-62
2021/09/09 02:49:44;;;;;;;10.20;8.48;;;17.70;87.00;;;;;;5053904;28;20029;-63
2021/09/09 02:52:09;;;;;;;9.63;8.63;;;17.70;87.20;;;;;;5053672;28;20392;-63
2021/09/09 02:54:35;;;;;;;9.52;8.48;;;17.60;87.30;;;;;;5053866;28;20032;-63
2021/09/09 02:57:00;;;;;;;10.57;8.70;;;17.60;87.50;;;;;;5053632;28;20036;-62
2021/09/09 02:59:26;;;;;;;14.93;9.93;;;17.50;87.50;;;;;;5053646;28;20088;-62
2021/09/09 03:01:51;;;;;;;11.48;9.63;;;17.50;87.70;;;;;;5053689;28;20035;-63
2021/09/09 03:04:17;;;;;;;11.93;10.38;;;17.50;87.80;;;;;;5053551;28;20028;-63
2021/09/09 03:06:42;;;;;;;13.27;9.93;;;17.50;87.90;;;;;;5053560;28;20116;-62
2021/09/09 03:09:08;;;;;;;13.75;10.82;;;17.50;88.10;;;;;;5053531;28;20497;-62
2021/09/09 03:11:33;;;;;;;14.15;10.27;;;17.40;88.10;;;;;;5053417;28;20379;-62
2021/09/09 03:13:59;;;;;;;14.00;10.73;;;17.40;88.30;;;;;;5053411;28;20037;-63
2021/09/09 03:16:24;;;;;;;13.38;11.27;;;17.40;88.40;;;;;;5053277;28;20025;-63
2021/09/09 03:18:50;;;;;;;16.40;11.93;;;17.40;88.50;;;;;;5053390;28;20025;-63
2021/09/09 03:21:16;;;;;;;14.95;12.30;;;17.40;88.60;;;;;;5053312;28;20496;-63
2021/09/09 03:23:41;;;;;;;14.30;11.10;;;17.40;88.70;;;;;;5053282;28;20044;-63
2021/09/09 03:26:07;;;;;;;13.90;11.07;;;17.30;88.80;;;;;;5053170;28;20033;-62
2021/09/09 03:28:32;;;;;;;13.95;11.80;;;17.30;88.90;;;;;;5053005;28;20025;-63
2021/09/09 03:30:58;;;;;;;14.75;11.63;;;17.30;89.60;;;;;;5053161;28;20381;-63
2021/09/09 03:33:23;;;;;;;14.40;11.75;;;17.30;89.10;;;;;;5053119;28;20123;-64
2021/09/09 03:35:49;;;;;;;12.80;11.18;;;17.30;89.30;;;;;;5053174;28;20025;-63
2021/09/09 03:38:15;;;;;;;14.25;10.98;;;17.30;89.30;;;;;;5053107;28;20039;-62
2021/09/09 03:40:40;;;;;;;14.27;10.93;;;17.20;90.00;;;;;;5053079;28;20392;-62
2021/09/09 03:43:06;;;;;;;14.27;11.50;;;17.20;89.60;;;;;;5052597;28;20045;-62
2021/09/09 03:45:31;;;;;;;13.20;11.15;;;17.20;89.70;;;;;;5052833;28;20455;-62
2021/09/09 03:47:57;;;;;;;14.95;11.75;;;17.20;89.90;;;;;;5052972;28;20500;-62
2021/09/09 03:50:22;;;;;;;13.60;11.48;;;17.10;90.00;;;;;;5052606;28;20496;-62
2021/09/09 03:52:48;;;;;;;14.57;11.38;;;17.10;90.00;;;;;;5052302;28;20021;-62
2021/09/09 03:55:13;;;;;;;13.25;11.68;;;17.10;90.00;;;;;;5052872;28;20037;-62
2021/09/09 03:57:39;;;;;;;14.63;12.00;;;17.00;90.10;;;;;;5052725;28;20067;-62
2021/09/09 04:00:06;;;;;;;14.95;12.02;;;17.00;90.10;;;;;;5052589;28;20025;-62
2021/09/09 04:02:32;;;;;;;14.23;12.07;;;17.00;90.20;;;;;;5034851;28;20029;-62
2021/09/09 04:04:57;;;;;;;14.82;11.23;;;17.00;90.20;;;;;;5052397;28;20029;-63
2021/09/09 04:07:23;;;;;;;14.30;12.23;;;17.00;90.20;;;;;;5052650;28;20025;-62
2021/09/09 04:09:48;;;;;;;15.30;11.90;;;17.00;90.30;;;;;;5052658;28;20112;-63
2021/09/09 04:12:14;;;;;;;14.93;12.45;;;16.90;90.30;;;;;;5052583;28;20079;-63
2021/09/09 04:14:39;;;;;;;14.73;12.23;;;17.00;90.40;;;;;;5052245;28;20422;-62
2021/09/09 04:17:06;;;;;;;14.93;12.25;;;16.90;90.40;;;;;;5052594;28;20533;-62
2021/09/09 04:19:31;;;;;;;12.63;11.30;;;16.90;90.50;;;;;;5052592;28;20097;-62
2021/09/09 04:21:57;;;;;;;14.10;11.70;;;16.90;90.50;;;;;;5034679;28;20064;-62
2021/09/09 04:24:23;;;;;;;14.20;12.02;;;16.90;90.80;;;;;;5052519;28;20021;-63
2021/09/09 04:26:49;;;;;;;14.95;11.70;;;16.80;90.60;;;;;;5052481;28;20385;-62
2021/09/09 04:29:15;;;;;;;15.85;12.27;;;16.80;90.70;;;;;;5052241;28;20076;-62
2021/09/09 04:31:41;;;;;;;13.32;11.40;;;16.80;90.70;;;;;;5052646;28;20507;-62
2021/09/09 04:34:06;;;;;;;13.25;11.73;;;16.70;90.70;;;;;;5052382;28;20485;-63
2021/09/09 04:36:32;;;;;;;12.93;11.02;;;16.70;90.80;;;;;;5034565;28;20032;-63
2021/09/09 04:38:57;;;;;;;15.32;11.85;;;16.70;90.80;;;;;;5052284;28;20052;-62
2021/09/09 04:41:23;;;;;;;14.23;11.80;;;16.70;90.80;;;;;;5052068;28;20384;-63
2021/09/09 04:43:49;;;;;;;14.85;11.18;;;16.60;90.80;;;;;;5052016;28;20102;-62
2021/09/09 04:46:14;;;;;;;12.30;10.48;;;16.60;90.80;;;;;;5052250;28;20037;-62
2021/09/09 04:48:40;;;;;;;12.07;10.75;;;16.60;90.80;;;;;;5052381;28;20520;-62
2021/09/09 04:51:06;;;;;;;12.50;11.02;;;16.60;90.90;;;;;;5052224;28;20428;-63
2021/09/09 04:53:31;;;;;;;13.35;10.75;;;16.50;90.90;;;;;;5052170;28;20013;-62
2021/09/09 04:55:57;;;;;;;13.35;11.43;;;16.50;90.90;;;;;;5034512;28;20021;-63
2021/09/09 04:58:22;;;;;;;15.15;11.38;;;16.50;90.90;;;;;;5051998;28;20041;-63
2021/09/09 05:00:48;;;;;;;13.10;10.23;;;16.50;90.90;;;;;;5052234;28;20540;-62
2021/09/09 05:03:14;;;;;;;12.77;10.57;;;16.50;91.00;;;;;;5036540;28;20225;-62
2021/09/09 05:05:39;;;;;;;13.23;11.38;;;16.40;91.00;;;;;;5055838;28;20076;-62
2021/09/09 05:08:05;;;;;;;11.52;9.80;;;16.40;91.10;;;;;;5055804;28;20029;-63
2021/09/09 05:10:30;;;;;;;12.10;10.63;;;16.40;91.10;;;;;;5055855;28;20082;-62
2021/09/09 05:12:56;;;;;;;12.73;10.52;;;16.30;91.20;;;;;;5055614;28;20081;-62
2021/09/09 05:15:22;;;;;;;13.20;10.73;;;16.30;91.20;;;;;;5055497;28;20035;-63
2021/09/09 05:17:47;;;;;;;13.77;10.88;;;16.40;91.30;;;;;;5055696;28;20021;-62
2021/09/09 05:20:13;;;;;;;12.30;9.88;;;16.40;91.30;;;;;;5037916;28;20033;-63
2021/09/09 05:22:39;;;;;;;11.20;9.52;;;16.40;91.30;;;;;;5041007;28;20017;-62
2021/09/09 05:25:30;;;;;;;;;;;;;;;;;;;;;
2021/09/09 05:27:56;;;;;;;11.68;9.23;;;16.40;91.30;;;;;;5072078;28;20023;-62
2021/09/09 05:30:22;;;;;;;13.93;9.80;;;16.40;91.30;;;;;;5074522;28;20024;-63
2021/09/09 05:32:47;;;;;;;11.30;9.70;;;16.40;91.30;;;;;;5071911;28;20420;-63
2021/09/09 05:35:13;;;;;;;11.18;9.90;;;16.40;91.30;;;;;;5074459;28;20074;-62
2021/09/09 05:37:39;;;;;;;11.45;9.23;;;16.40;91.30;;;;;;5056787;28;20021;-62
2021/09/09 05:40:05;;;;;;;14.48;10.43;;;16.30;91.30;;;;;;5056458;28;20024;-63
2021/09/09 05:42:31;;;;;;;11.32;9.75;;;16.40;91.30;;;;;;5071451;28;20049;-62
2021/09/09 05:44:56;;;;;;;12.27;9.52;;;16.40;91.40;;;;;;5074329;28;20043;-63
2021/09/09 05:47:22;;;;;;;11.00;8.82;;;16.40;91.30;;;;;;5071612;28;20071;-62
2021/09/09 05:49:47;;;;;;;13.00;9.75;;;16.40;91.30;;;;;;5074455;28;20036;-62
2021/09/09 05:52:13;;;;;;;13.18;10.73;;;16.40;91.40;;;;;;5071663;28;20024;-62
2021/09/09 05:55:00;;;;;;;;;;;;;;;;;;;;;
2021/09/09 05:57:26;;;;;;;12.57;8.73;;;16.40;91.40;;;;;;5068416;28;20013;-62
2021/09/09 05:59:52;;;;;;;10.55;8.43;;;16.40;91.50;;;;;;5056166;28;20104;-62
2021/09/09 06:02:19;;;;;;;11.80;9.32;;;16.50;91.40;;;;;;5071503;28;20028;-62
2021/09/09 06:04:47;;;;;;;11.82;9.07;;;16.50;91.40;;;;;;5074093;28;20074;-62
2021/09/09 06:07:13;;;;;;;15.20;10.32;;;16.60;91.40;;;;;;5073843;28;20106;-62
2021/09/09 06:09:40;;;;;;;14.70;12.23;;;16.60;91.40;;;;;;5053647;28;20021;-63
2021/09/09 06:12:06;;;;;;;12.05;10.15;;;16.60;91.30;;;;;;5073267;28;20017;-62
2021/09/09 06:14:33;;;;;;;12.02;10.52;;;16.70;91.40;;;;;;5071989;28;20021;-63
2021/09/09 06:16:59;;;;;;;12.65;10.25;;;16.70;91.30;;;;;;5065632;28;20050;-63
2021/09/09 06:19:25;;;;;;;15.75;10.52;;;16.80;91.30;;;;;;5070945;28;20033;-62
2021/09/09 06:21:51;;;;;;;12.82;11.23;;;16.80;91.30;;;;;;5073810;28;20434;-62
2021/09/09 06:24:17;;;;;;;14.02;11.18;;;16.90;91.40;;;;;;5052873;28;20028;-62
2021/09/09 06:26:42;;;;;;;12.75;11.15;;;16.90;91.40;;;;;;5070847;28;20479;-62
2021/09/09 06:29:08;;;;;;;12.70;10.65;;;16.90;91.30;;;;;;5073534;28;20376;-62
2021/09/09 06:31:34;;;;;;;16.48;13.95;;;16.90;91.30;;;;;;5070522;28;20024;-62
2021/09/09 06:33:59;;;;;;;21.45;15.90;;;17.00;91.50;;;;;;5073470;28;20070;-63
2021/09/09 06:36:25;;;;;;;20.73;16.40;;;17.00;91.70;;;;;;5071695;28;20544;-62
2021/09/09 06:39:04;;;;;;;;;;;;;;;;;;;;;
2021/09/09 06:41:30;;;;;;;;;;;17.10;91.80;;;;;;5073666;28;20031;-62
2021/09/09 06:43:55;;;;;;;18.10;14.15;;;17.10;91.80;;;;;;5073197;28;19995;-63
2021/09/09 06:46:21;;;;;;;20.17;16.20;;;17.20;92.00;;;;;;5073028;28;20032;-63
2021/09/09 06:48:46;;;;;;;22.98;18.17;;;17.20;92.10;;;;;;5073018;28;20024;-63
2021/09/09 06:51:12;;;;;;;21.85;16.80;;;17.30;92.10;;;;;;5070483;28;20039;-63
2021/09/09 06:53:37;;;;;;;22.60;18.10;;;17.40;92.10;;;;;;5051493;28;20066;-63
2021/09/09 06:56:03;;;;;;;22.65;17.77;;;17.40;92.10;;;;;;5053443;28;20057;-62
2021/09/09 06:58:28;;;;;;;20.52;17.60;;;17.50;92.10;;;;;;5059353;28;20492;-63
2021/09/09 07:00:54;;;;;;;22.77;18.77;;;17.60;92.10;;;;;;5069529;28;20036;-64
2021/09/09 07:03:19;;;;;;;21.88;19.00;;;17.70;92.20;;;;;;5054355;28;20020;-63
2021/09/09 07:05:45;;;;;;;26.05;22.20;;;17.80;92.60;;;;;;5072529;28;20108;-63
2021/09/09 07:08:10;;;;;;;23.20;20.65;;;17.80;92.80;;;;;;5072414;28;20043;-63
2021/09/09 07:10:36;;;;;;;30.20;20.98;;;17.90;93.00;;;;;;5070401;28;20483;-63
2021/09/09 07:13:02;;;;;;;21.27;18.40;;;18.00;93.10;;;;;;5066778;28;20024;-63
2021/09/09 07:15:28;;;;;;;24.95;18.75;;;18.10;92.40;;;;;;5071364;28;20025;-63
2021/09/09 07:17:53;;;;;;;24.25;21.17;;;18.10;92.30;;;;;;5072118;28;20031;-63
2021/09/09 07:20:19;;;;;;;24.85;19.77;;;18.20;92.20;;;;;;5069555;28;20024;-63
2021/09/09 07:22:44;;;;;;;20.45;17.48;;;18.20;92.10;;;;;;5072090;28;20107;-63
2021/09/09 07:25:10;;;;;;;23.58;18.88;;;18.30;92.00;;;;;;5071637;28;20103;-63
2021/09/09 07:27:37;;;;;;;22.58;18.90;;;18.40;92.00;;;;;;5071119;28;20017;-63
2021/09/09 07:30:04;;;;;;;19.50;16.90;;;18.40;92.00;;;;;;5070302;28;20105;-63
2021/09/09 07:32:30;;;;;;;21.08;17.73;;;18.50;91.80;;;;;;5071640;28;20020;-63
2021/09/09 07:34:56;;;;;;;25.25;18.92;;;18.60;91.70;;;;;;5069071;28;20070;-62
2021/09/09 07:37:21;;;;;;;22.92;18.90;;;18.70;91.60;;;;;;5071855;28;20555;-62
2021/09/09 07:39:47;;;;;;;21.98;18.77;;;18.80;91.60;;;;;;5054328;28;20031;-62
2021/09/09 07:42:13;;;;;;;20.98;18.65;;;18.90;91.60;;;;;;5068745;28;20044;-62
2021/09/09 07:44:38;;;;;;;25.48;19.20;;;19.00;91.40;;;;;;5072077;28;20091;-62
2021/09/09 07:47:05;;;;;;;23.02;18.88;;;19.10;91.00;;;;;;5071778;28;20048;-62
2021/09/09 07:49:31;;;;;;;21.13;17.85;;;19.20;90.70;;;;;;5071611;28;20387;-62
2021/09/09 07:51:56;;;;;;;21.20;18.27;;;19.30;90.30;;;;;;5072081;28;20092;-62
2021/09/09 07:54:22;;;;;;;22.20;17.88;;;19.30;89.30;;;;;;5052722;28;20068;-62
2021/09/09 07:56:48;;;;;;;20.55;16.25;;;19.50;89.40;;;;;;5052799;28;20042;-62
2021/09/09 07:59:14;;;;;;;22.88;18.73;;;19.50;89.60;;;;;;5054431;28;20029;-63
2021/09/09 08:01:40;;;;;;;24.00;17.40;;;19.70;89.00;;;;;;5071856;28;20024;-62
2021/09/09 08:04:05;;;;;;;20.15;17.23;;;19.70;89.00;;;;;;5071848;28;20021;-62
2021/09/09 08:06:31;;;;;;;22.13;17.58;;;19.80;88.70;;;;;;5072229;28;20052;-62
2021/09/09 08:08:56;;;;;;;21.92;18.80;;;19.90;88.10;;;;;;5071933;28;20020;-62
2021/09/09 08:11:22;;;;;;;20.10;17.92;;;20.00;87.10;;;;;;5071977;28;20028;-63
2021/09/09 08:13:51;;;;;;;19.65;17.50;;;20.10;86.60;;;;;;5071836;28;20028;-62
2021/09/09 08:16:17;;;;;;;18.90;16.60;;;20.10;86.00;;;;;;5069105;28;20504;-63
2021/09/09 08:18:43;;;;;;;16.45;14.63;;;20.20;85.90;;;;;;5071913;28;20037;-63
2021/09/09 08:21:08;;;;;;;18.33;16.42;;;20.30;86.00;;;;;;5072020;28;20021;-63
2021/09/09 08:23:34;;;;;;;20.20;17.23;;;20.40;85.60;;;;;;5071803;28;20012;-62
2021/09/09 08:25:59;;;;;;;20.05;17.30;;;20.50;85.70;;;;;;5071921;28;20450;-62
2021/09/09 08:28:25;;;;;;;22.73;19.13;;;20.60;85.50;;;;;;5048192;28;20082;-62
2021/09/09 08:30:51;;;;;;;20.60;17.80;;;20.70;85.90;;;;;;5071736;28;20096;-62
2021/09/09 08:33:16;;;;;;;18.17;15.38;;;20.80;85.50;;;;;;5071415;28;20071;-63
2021/09/09 08:35:42;;;;;;;19.02;17.02;;;20.90;85.30;;;;;;5064940;28;20040;-63
2021/09/09 08:38:08;;;;;;;23.23;19.55;;;21.00;84.70;;;;;;5073683;28;20074;-63
2021/09/09 08:40:36;;;;;;;21.15;18.85;;;21.00;83.90;;;;;;5076272;28;20033;-63
2021/09/09 08:43:03;;;;;;;25.77;20.92;;;21.10;83.50;;;;;;5075612;28;20535;-63
2021/09/09 08:45:28;;;;;;;23.02;20.13;;;21.20;83.70;;;;;;5076079;28;20078;-63
2021/09/09 08:47:57;;;;;;;22.83;19.92;;;21.30;83.40;;;;;;5058181;28;20040;-63
2021/09/09 08:50:23;;;;;;;22.13;19.13;;;21.30;83.30;;;;;;5058801;28;20020;-63
2021/09/09 08:52:49;;;;;;;25.75;19.10;;;21.40;83.40;;;;;;5068936;28;20025;-63
2021/09/09 08:55:15;;;;;;;20.52;17.95;;;21.40;82.50;;;;;;5065844;28;20025;-63
2021/09/09 08:57:41;;;;;;;21.80;19.50;;;21.60;82.90;;;;;;5054981;28;20538;-63
2021/09/09 09:00:07;;;;;;;22.52;20.15;;;21.60;82.60;;;;;;5075279;28;20044;-63
2021/09/09 09:02:47;;;;;;;21.67;19.48;;;21.70;82.40;;;;;;5064783;28;20162;-64
2021/09/09 09:05:12;;;;;;;23.08;20.50;;;21.80;81.70;;;;;;5073836;28;20029;-63
2021/09/09 09:07:38;;;;;;;23.33;20.80;;;21.90;82.10;;;;;;5075045;28;20021;-63
2021/09/09 09:10:18;;;;;;;27.70;23.08;;;22.00;81.60;;;;;;5069683;28;20492;-63
2021/09/09 09:12:49;;;;;;;25.95;22.05;;;22.10;81.60;;;;;;5057044;28;20027;-63
2021/09/09 09:15:29;;;;;;;25.90;23.00;;;22.20;80.90;;;;;;5074679;28;20090;-63
2021/09/09 09:18:08;;;;;;;25.52;22.83;;;22.30;81.20;;;;;;5058471;28;20357;-63
2021/09/09 09:20:40;;;;;;;32.88;23.65;;;22.40;81.10;;;;;;5075533;28;20085;-63
2021/09/09 09:23:11;;;;;;;24.05;21.35;;;22.40;81.50;;;;;;5075186;28;20032;-63
2021/09/09 09:25:48;;;;;;;22.13;19.83;;;22.60;81.30;;;;;;5075486;28;20028;-63
2021/09/09 09:28:14;;;;;;;22.25;17.98;;;22.80;81.10;;;;;;5075427;28;20108;-63
2021/09/09 09:31:01;;;;;;;20.38;17.45;;;23.00;80.40;;;;;;5075417;28;20029;-63
2021/09/09 09:33:36;;;;;;;18.98;16.92;;;23.20;78.90;;;;;;5075173;28;20035;-63
2021/09/09 09:36:32;;;;;;;21.80;16.30;;;23.30;78.40;;;;;;5057289;28;20024;-63
2021/09/09 09:39:14;;;;;;;19.02;17.02;;;23.40;77.60;;;;;;5037204;28;20043;-63
2021/09/09 09:41:55;;;;;;;20.05;17.90;;;23.40;78.40;;;;;;5074556;28;20484;-63
2021/09/09 09:44:31;;;;;;;20.15;17.40;;;23.50;77.10;;;;;;5075019;28;20063;-63
2021/09/09 09:47:13;;;;;;;17.42;15.43;;;23.60;77.20;;;;;;5057775;28;20028;-64
2021/09/09 09:49:43;;;;;;;21.00;17.08;;;23.70;76.70;;;;;;5073677;28;20050;-63
2021/09/09 09:52:17;;;;;;;19.10;17.10;;;23.90;76.90;;;;;;5055003;28;20019;-63
2021/09/09 09:54:57;;;;;;;21.67;17.00;;;24.00;76.20;;;;;;5054879;28;20021;-63
2021/09/09 09:57:24;;;;;;;20.27;17.42;;;24.10;75.70;;;;;;5054956;28;20027;-64
2021/09/09 09:59:49;;;;;;;20.05;17.90;;;24.20;75.50;;;;;;5054909;28;20055;-63
2021/09/09 10:02:15;;;;;;;17.02;15.18;;;24.20;75.40;;;;;;5054940;28;20032;-64
2021/09/09 10:04:43;;;;;;;18.02;16.05;;;24.30;75.30;;;;;;5054551;28;20057;-63
2021/09/09 10:07:10;;;;;;;20.58;15.68;;;24.50;74.40;;;;;;5046110;28;20032;-63
2021/09/09 10:09:37;;;;;;;19.55;15.77;;;24.70;74.70;;;;;;5074025;28;20020;-63
2021/09/09 10:12:03;;;;;;;17.25;15.40;;;24.90;74.00;;;;;;5074002;28;20384;-63
2021/09/09 10:14:29;;;;;;;15.38;13.80;;;25.00;73.20;;;;;;5071580;28;20021;-63
2021/09/09 10:16:57;;;;;;;12.75;11.40;;;25.10;72.90;;;;;;5062041;28;20025;-64
2021/09/09 10:19:31;;;;;;;15.30;11.80;;;25.30;72.60;;;;;;5073764;28;20044;-64
2021/09/09 10:22:12;;;;;;;12.82;10.90;;;25.50;72.10;;;;;;5054796;28;20029;-63
2021/09/09 10:24:40;;;;;;;13.48;11.20;;;25.70;71.30;;;;;;5064666;28;20034;-63
2021/09/09 10:27:19;;;;;;;15.15;13.50;;;25.80;70.30;;;;;;5073300;28;20025;-64
2021/09/09 10:29:48;;;;;;;;;;;26.10;70.20;;;;;;5056234;28;20037;-64
2021/09/09 10:32:29;;;;;;;17.60;14.25;;;26.10;69.80;;;;;;5073400;28;19904;-64
2021/09/09 10:35:22;;;;;;;14.93;13.20;;;26.30;69.90;;;;;;5070577;28;20025;-63
2021/09/09 10:37:53;;;;;;;14.48;12.98;;;26.50;69.60;;;;;;5068316;28;20024;-64
2021/09/09 10:40:45;;;;;;;15.85;14.20;;;26.60;69.10;;;;;;5073174;28;20016;-64
2021/09/09 10:43:13;;;;;;;15.15;12.25;;;26.90;68.10;;;;;;5067954;28;20138;-64
2021/09/09 10:45:41;;;;;;;14.95;13.40;;;27.10;68.00;;;;;;5070162;28;20059;-64
2021/09/09 10:48:20;;;;;;;15.80;12.95;;;27.30;67.50;;;;;;5072399;28;20025;-64
2021/09/09 10:51:04;;;;;;;15.70;13.50;;;27.80;66.80;;;;;;5070727;28;20035;-64
2021/09/09 10:53:54;;;;;;;13.55;11.38;;;28.20;65.20;;;;;;5068325;28;20035;-64
2021/09/09 10:56:22;;;;;;;12.27;10.77;;;29.30;63.40;;;;;;5073167;28;20031;-64
2021/09/09 10:59:09;;;;;;;8.52;7.70;;;30.80;60.30;;;;;;5072710;28;20025;-64
2021/09/09 11:01:35;;;;;;;11.38;10.27;;;31.90;58.70;;;;;;5067144;28;20028;-64
2021/09/09 11:04:00;;;;;;;14.38;10.82;;;31.80;56.10;;;;;;5072080;28;20025;-64
2021/09/09 11:06:28;;;;;;;12.18;9.80;;;31.50;56.50;;;;;;5071695;28;20078;-64
2021/09/09 11:09:10;;;;;;;10.00;9.00;;;31.50;57.30;;;;;;5069492;28;20016;-64
2021/09/09 11:11:37;;;;;;;8.40;7.65;;;31.60;57.40;;;;;;5071811;28;20103;-64
2021/09/09 11:14:08;;;;;;;9.52;8.63;;;31.80;57.70;;;;;;5051036;28;20039;-64
2021/09/09 11:16:36;;;;;;;9.77;8.88;;;32.00;57.30;;;;;;5068464;28;20013;-64
2021/09/09 11:19:03;;;;;;;11.00;9.93;;;32.20;57.00;;;;;;5052349;28;20451;-64
2021/09/09 11:21:32;;;;;;;8.43;7.50;;;32.90;56.30;;;;;;5050541;28;20090;-64
2021/09/09 11:24:00;;;;;;;9.85;8.90;;;33.30;55.30;;;;;;5053542;28;20021;-64
2021/09/09 11:26:26;;;;;;;8.30;7.45;;;34.10;54.20;;;;;;5069054;28;20480;-64
2021/09/09 11:28:52;;;;;;;8.15;7.28;;;35.30;52.30;;;;;;5069245;28;20059;-64
2021/09/09 11:31:21;;;;;;;8.32;7.28;;;36.90;50.50;;;;;;5071234;28;20379;-65
2021/09/09 11:33:50;;;;;;;8.30;7.60;;;38.00;48.30;;;;;;5072381;28;20074;-64
2021/09/09 11:36:16;;;;;;;9.80;8.90;;;38.20;47.40;;;;;;5071737;28;20480;-65
2021/09/09 11:38:42;;;;;;;10.52;8.98;;;38.60;45.90;;;;;;5063430;28;20487;-65
2021/09/09 11:41:15;;;;;;;10.15;9.02;;;39.00;45.10;;;;;;5071239;28;20024;-65
2021/09/09 11:43:46;;;;;;;9.18;8.35;;;39.70;43.70;;;;;;5072035;28;20403;-65
2021/09/09 11:46:11;;;;;;;8.98;8.02;;;40.60;43.60;;;;;;5066854;28;20028;-65
2021/09/09 11:48:37;;;;;;;9.18;8.30;;;41.60;42.40;;;;;;5072048;28;20479;-65
2021/09/09 11:51:02;;;;;;;9.10;8.23;;;42.30;41.50;;;;;;5070690;28;20101;-65
2021/09/09 11:53:28;;;;;;;8.57;7.78;;;42.90;40.80;;;;;;5065277;28;20017;-65
2021/09/09 11:55:55;;;;;;;8.50;7.65;;;43.70;40.50;;;;;;5072068;28;20074;-65
2021/09/09 11:58:37;;;;;;;8.88;8.07;;;44.70;39.40;;;;;;5066743;28;20020;-65
2021/09/09 12:01:05;;;;;;;9.70;8.82;;;45.20;38.10;;;;;;5071989;28;20020;-65
2021/09/09 12:03:31;;;;;;;;;;;44.70;37.20;;;;;;5072516;28;20103;-65
2021/09/09 12:05:57;;;;;;;9.48;8.57;;;44.50;37.70;;;;;;5071917;28;20007;-65
2021/09/09 12:08:23;;;;;;;10.48;9.43;;;43.70;38.20;;;;;;5066373;28;20020;-65
2021/09/09 12:10:48;;;;;;;13.45;12.15;;;42.40;38.80;;;;;;5072073;28;20372;-65
2021/09/09 12:13:29;;;;;;;10.38;9.48;;;41.00;39.70;;;;;;5068043;28;20048;-65
2021/09/09 12:15:55;;;;;;;9.85;8.95;;;39.30;41.70;;;;;;5040818;28;20088;-65
2021/09/09 12:18:30;;;;;;;9.35;8.55;;;39.00;43.20;;;;;;5057587;28;20036;-65
2021/09/09 12:21:09;;;;;;;11.15;10.07;;;40.60;42.40;;;;;;5057608;28;20050;-65
2021/09/09 12:23:37;;;;;;;9.82;8.98;;;41.20;41.10;;;;;;5068542;28;20024;-65
2021/09/09 12:26:17;;;;;;;10.20;9.30;;;42.30;40.40;;;;;;5048744;28;20052;-65
2021/09/09 12:28:43;;;;;;;8.85;8.05;;;43.60;39.50;;;;;;5071058;28;20107;-65
2021/09/09 12:31:08;;;;;;;9.35;8.57;;;44.60;38.60;;;;;;5053824;28;20016;-65
2021/09/09 12:33:38;;;;;;;9.23;8.38;;;45.40;37.50;;;;;;5071739;28;20078;-65
2021/09/09 12:36:16;;;;;;;8.65;7.95;;;45.80;37.00;;;;;;5071417;28;20016;-65
2021/09/09 12:38:45;;;;;;;9.50;8.70;;;46.30;36.70;;;;;;5065979;28;20028;-65